Time;durP1;ratioP1;P1;durP2;ratioP2;P2;SDS_P1;SDS_P2;PMS_P1;PMS_P2;Temp;Humidity;BMP_temperature;BMP_pressure;BME280_temperature;BME280_humidity;BME280_pressure;Samples;Min_cycle;Max_cycle;Signal;HPM_P1;HPM_P2
2023/06/17 00:01:50;;;;;;;28.70;23.20;;;;;;;13.23;94.08;98657.05;270497;1263;22529;-83
2023/06/17 00:08:12;;;;;;;35.50;27.40;;;;;;;13.17;94.03;98649.62;269198;1273;26652;-83
2023/06/17 00:14:16;;;;;;;34.80;27.20;;;;;;;13.02;93.81;98647.16;270464;1273;22534;-84
2023/06/17 00:20:36;;;;;;;30.70;25.50;;;;;;;12.86;94.04;98641.56;272488;1273;22403;-83
2023/06/17 00:26:38;;;;;;;33.50;27.20;;;;;;;12.77;94.68;98638.06;272464;1257;22395;-84
2023/06/17 00:32:40;;;;;;;40.30;27.30;;;;;;;12.75;95.07;98633.29;272505;1274;22374;-84
2023/06/17 00:38:42;;;;;;;35.30;26.30;;;;;;;12.70;95.11;98629.14;272066;1274;22410;-83
2023/06/17 00:45:05;;;;;;;30.10;23.60;;;;;;;12.65;95.40;98628.69;270549;1261;23724;-83
2023/06/17 00:51:08;;;;;;;34.80;25.70;;;;;;;12.58;95.41;98636.39;272245;1273;22804;-82
2023/06/17 00:57:13;;;;;;;34.20;26.80;;;;;;;12.49;95.65;98635.40;273109;1263;22258;-84
2023/06/17 01:03:17;;;;;;;29.00;23.10;;;;;;;12.39;95.78;98634.64;272467;1272;22290;-84
2023/06/17 01:09:21;;;;;;;27.20;22.70;;;;;;;12.32;96.11;98639.96;271634;1264;22544;-83
2023/06/17 01:15:23;;;;;;;28.20;22.70;;;;;;;12.23;96.09;98639.98;270938;1262;22276;-84
2023/06/17 01:21:28;;;;;;;27.60;21.00;;;;;;;12.25;97.15;98637.23;269770;1261;22613;-84
2023/06/17 01:28:06;;;;;;;26.00;22.10;;;;;;;12.31;97.26;98637.30;271755;1272;22316;-83
2023/06/17 01:34:07;;;;;;;26.50;18.70;;;;;;;12.28;97.57;98634.10;272128;1273;22292;-85
2023/06/17 01:40:12;;;;;;;25.40;19.60;;;;;;;12.30;97.95;98632.45;271364;1273;23280;-83
2023/06/17 01:46:15;;;;;;;25.10;18.60;;;;;;;12.31;98.23;98635.89;269728;1264;23778;-84
2023/06/17 01:52:16;;;;;;;21.00;17.30;;;;;;;12.28;98.41;98627.52;269692;1273;22657;-84
2023/06/17 01:58:18;;;;;;;24.40;18.20;;;;;;;12.27;98.76;98627.91;269422;1261;23944;-85
2023/06/17 02:04:20;;;;;;;22.10;16.70;;;;;;;12.28;98.97;98630.10;271497;1273;23212;-83
2023/06/17 02:10:22;;;;;;;24.30;17.10;;;;;;;12.26;99.19;98628.61;269138;1273;22769;-84
2023/06/17 02:16:24;;;;;;;20.70;16.30;;;;;;;12.27;99.46;98636.06;269471;1273;22551;-84
2023/06/17 02:22:26;;;;;;;21.10;15.20;;;;;;;12.26;99.86;98642.73;269698;1270;22335;-85
2023/06/17 02:28:48;;;;;;;19.30;14.80;;;;;;;12.29;100.00;98643.03;270703;1273;22637;-84
2023/06/17 02:34:50;;;;;;;21.00;15.00;;;;;;;12.32;100.00;98642.86;269783;1273;23302;-84
2023/06/17 02:40:52;;;;;;;20.20;14.70;;;;;;;12.35;100.00;98643.02;271611;1274;22312;-83
2023/06/17 02:46:54;;;;;;;19.20;14.30;;;;;;;12.35;100.00;98645.46;269471;1273;22722;-83
2023/06/17 02:52:56;;;;;;;18.40;14.00;;;;;;;12.37;100.00;98644.84;270641;1273;23066;-83
2023/06/17 02:59:18;;;;;;;17.20;13.60;;;;;;;12.39;100.00;98646.48;272308;1273;22771;-84
2023/06/17 03:05:41;;;;;;;17.30;12.60;;;;;;;12.45;100.00;98647.24;272431;1273;22150;-84
2023/06/17 03:12:22;;;;;;;16.00;12.50;;;;;;;12.51;100.00;98651.55;272257;1273;22217;-84
2023/06/17 03:18:28;;;;;;;17.20;13.40;;;;;;;12.55;100.00;98653.26;272781;1262;22297;-84
2023/06/17 03:24:30;;;;;;;17.30;13.50;;;;;;;12.60;100.00;98653.71;272226;1273;22181;-83
2023/06/17 03:30:32;;;;;;;17.50;13.80;;;;;;;12.65;100.00;98650.57;272380;1273;23222;-83
2023/06/17 03:37:16;;;;;;;16.20;12.40;;;;;;;12.76;100.00;98654.00;272491;1267;22128;-84
2023/06/17 03:43:38;;;;;;;14.50;10.90;;;;;;;12.91;100.00;98653.86;272982;1276;22152;-83
2023/06/17 03:49:40;;;;;;;17.10;11.10;;;;;;;13.07;100.00;98658.61;272160;1273;22538;-83
2023/06/17 03:55:44;;;;;;;12.70;10.30;;;;;;;13.18;100.00;98660.14;272536;1273;22224;-84
2023/06/17 04:01:46;;;;;;;16.30;9.70;;;;;;;13.26;100.00;98664.11;272253;1273;22291;-84
2023/06/17 04:08:14;;;;;;;13.80;10.00;;;;;;;13.31;100.00;98664.48;272749;1274;23222;-84
2023/06/17 04:14:16;;;;;;;13.80;8.60;;;;;;;13.39;100.00;98671.90;271215;1273;22341;-84
2023/06/17 04:20:40;;;;;;;12.30;9.20;;;;;;;13.53;100.00;98672.13;272507;1273;23950;-84
2023/06/17 04:27:02;;;;;;;;;;;;;;;;;;;;;
2023/06/17 04:34:21;;;;;;;14.10;10.50;;;;;;;13.93;100.00;98675.48;273011;1270;22646;-85
2023/06/17 04:41:05;;;;;;;11.90;8.70;;;;;;;14.13;100.00;98671.71;272719;1273;23958;-85
2023/06/17 04:47:10;;;;;;;13.80;10.00;;;;;;;14.27;100.00;98673.36;272225;1268;172506;-85
2023/06/17 04:53:13;;;;;;;12.50;9.90;;;;;;;14.38;100.00;98679.70;270565;1273;22585;-85
2023/06/17 04:59:22;;;;;;;13.60;10.20;;;;;;;14.47;100.00;98681.03;271266;1273;22552;-84
2023/06/17 05:05:54;;;;;;;14.40;10.50;;;;;;;14.60;100.00;98681.92;270690;1273;22557;-85
2023/06/17 05:19:55;;;;;;;16.00;11.40;;;;;;;14.80;100.00;98689.29;269946;1273;24370;-84
2023/06/17 05:26:00;;;;;;;17.20;11.80;;;;;;;14.99;100.00;98692.61;271221;1273;22190;-84
2023/06/17 05:55:23;;;;;;;;;;;;;;;16.18;100.00;98695.58;272034;1273;23774;-85
2023/06/17 06:01:28;;;;;;;18.40;15.50;;;;;;;16.16;99.82;98702.01;272714;1273;22334;-85
2023/06/17 06:08:15;;;;;;;25.20;16.00;;;;;;;16.09;99.30;98710.09;272666;1273;22237;-84
2023/06/17 06:14:43;;;;;;;26.90;18.30;;;;;;;16.02;99.02;98714.91;272868;1274;22165;-85
2023/06/17 06:29:15;;;;;;;20.00;16.70;;;;;;;16.14;99.19;98726.08;272844;1274;23015;-83
2023/06/17 06:42:35;;;;;;;23.90;18.10;;;;;;;16.61;98.96;98719.34;271875;1272;22332;-83
2023/06/17 06:48:48;;;;;;;26.30;20.50;;;;;;;16.67;97.61;98722.80;272370;1273;22253;-84
2023/06/17 06:55:43;;;;;;;23.90;19.50;;;;;;;16.66;97.49;98725.50;272565;1267;22239;-83
2023/06/17 07:01:45;;;;;;;24.60;17.50;;;;;;;16.81;97.42;98726.11;271607;1274;22258;-83
2023/06/17 07:07:47;;;;;;;24.20;18.30;;;;;;;16.89;97.49;98728.39;271342;1260;24965;-83
2023/06/17 07:14:10;;;;;;;22.10;17.70;;;;;;;16.95;96.74;98733.27;271586;1273;22317;-84
2023/06/17 07:20:12;;;;;;;24.70;18.30;;;;;;;16.96;96.36;98734.98;272507;1273;23280;-83
2023/06/17 07:34:27;;;;;;;22.60;14.40;;;;;;;17.14;96.20;98728.55;270087;1283;22587;-83
2023/06/17 07:41:20;;;;;;;18.60;13.60;;;;;;;17.40;96.36;98726.16;271297;1275;22197;-85
2023/06/17 07:55:17;;;;;;;16.40;13.90;;;;;;;18.08;94.73;98722.55;272390;1261;22536;-85
2023/06/17 08:01:35;;;;;;;17.70;12.70;;;;;;;18.21;93.49;98721.35;271040;1272;22205;-85
2023/06/17 08:08:16;;;;;;;18.30;12.40;;;;;;;18.39;93.50;98718.63;270970;1273;22821;-84
2023/06/17 08:14:18;;;;;;;24.10;11.90;;;;;;;18.88;93.53;98716.75;270784;1273;22666;-85
2023/06/17 08:21:19;;;;;;;13.30;10.70;;;;;;;19.52;91.72;98708.48;271962;1273;22144;-85
2023/06/17 08:27:47;;;;;;;15.60;11.30;;;;;;;19.99;90.12;98708.31;272942;1274;22200;-84
2023/06/17 08:34:38;;;;;;;14.10;11.10;;;;;;;20.21;87.86;98709.27;273010;1274;22201;-83
2023/06/17 08:40:44;;;;;;;13.70;11.20;;;;;;;20.10;86.40;98711.02;270963;1272;23665;-84
2023/06/17 08:46:46;;;;;;;14.60;10.90;;;;;;;20.13;86.38;98717.12;270873;1258;22604;-84
2023/06/17 08:53:24;;;;;;;13.70;10.80;;;;;;;20.21;85.52;98716.15;270651;1273;22240;-84
2023/06/17 08:59:27;;;;;;;12.80;9.00;;;;;;;20.27;84.64;98718.04;270414;1273;22496;-84
2023/06/17 09:05:29;;;;;;;13.00;10.20;;;;;;;20.41;84.77;98719.88;269890;1273;22643;-84
2023/06/17 09:12:08;;;;;;;12.50;10.60;;;;;;;20.57;83.92;98712.52;270895;1274;23237;-84
2023/06/17 09:25:46;;;;;;;10.70;9.60;;;;;;;21.07;81.94;98702.80;272360;1275;22668;-85
2023/06/17 09:32:17;;;;;;;12.10;9.20;;;;;;;21.58;81.39;98699.38;272887;1275;22206;-85
2023/06/17 09:39:05;;;;;;;10.50;9.00;;;;;;;21.79;79.90;98697.90;273114;1273;22184;-84
2023/06/17 09:53:44;;;;;;;10.00;8.20;;;;;;;22.69;78.45;98695.55;270518;1294;22036;-84
2023/06/17 10:00:18;;;;;;;8.90;7.50;;;;;;;23.26;77.31;98686.31;271593;1272;22172;-84
2023/06/17 10:14:07;;;;;;;9.80;8.00;;;;;;;23.69;73.16;98686.34;272599;1273;22255;-84
2023/06/17 10:20:11;;;;;;;11.00;7.40;;;;;;;23.89;72.46;98682.02;273062;1275;22169;-83
2023/06/17 10:27:05;;;;;;;7.90;6.70;;;;;;;24.22;71.07;98678.15;272508;1262;22642;-84
2023/06/17 10:33:08;;;;;;;9.90;8.00;;;;;;;24.14;70.05;98677.58;270102;1274;22472;-85
2023/06/17 10:46:35;;;;;;;10.00;7.40;;;;;;;24.81;66.96;98672.14;270174;1264;22716;-84
2023/06/17 10:53:27;;;;;;;7.40;6.40;;;;;;;24.96;65.11;98668.73;270494;1273;22185;-83
2023/06/17 10:59:32;;;;;;;9.30;7.20;;;;;;;25.11;64.65;98667.80;273069;1280;22187;-84
2023/06/17 11:05:38;;;;;;;8.20;6.60;;;;;;;25.28;64.23;98668.33;272534;1271;22188;-84
2023/06/17 11:12:21;;;;;;;8.50;6.20;;;;;;;25.45;62.43;98663.98;272789;1276;22254;-84
2023/06/17 11:19:10;;;;;;;7.50;6.00;;;;;;;25.77;61.85;98655.78;271677;1275;22544;-84
2023/06/17 11:25:45;;;;;;;8.70;6.10;;;;;;;25.83;59.60;98654.34;272505;1278;22250;-84
2023/06/17 11:32:07;;;;;;;8.30;6.20;;;;;;;25.46;59.31;98656.22;272104;1278;22706;-84
2023/06/17 11:38:19;;;;;;;6.70;6.00;;;;;;;25.82;59.33;98656.01;272430;1277;22348;-84
2023/06/17 11:44:21;;;;;;;6.40;5.20;;;;;;;26.31;58.27;98655.25;272371;1273;22207;-86
2023/06/17 11:50:43;;;;;;;8.10;6.00;;;;;;;26.38;56.52;98647.95;272359;1273;22237;-85
2023/06/17 11:57:36;;;;;;;5.50;5.00;;;;;;;26.15;56.23;98643.24;273035;1263;22189;-84
2023/06/17 12:04:30;;;;;;;7.10;6.40;;;;;;;25.95;55.45;98636.66;273636;1270;23030;-82
2023/06/17 12:10:51;;;;;;;5.80;5.00;;;;;;;25.57;55.07;98635.26;270738;1270;23720;-84
2023/06/17 12:17:43;;;;;;;6.50;5.10;;;;;;;25.30;54.82;98629.96;271413;1262;22400;-84
2023/06/17 12:23:53;;;;;;;6.10;5.40;;;;;;;25.26;55.12;98623.27;270792;1272;22554;-84
2023/06/17 12:29:57;;;;;;;5.20;4.40;;;;;;;25.14;54.79;98619.53;270576;1272;25216;-84
2023/06/17 12:37:11;;;;;;;6.40;5.30;;;;;;;25.10;54.45;98616.46;271331;1270;23647;-84
2023/06/17 12:51:03;;;;;;;5.00;4.40;;;;;;;24.64;54.02;98607.66;273216;1270;23032;-83
2023/06/17 12:57:07;;;;;;;6.70;4.90;;;;;;;24.45;54.31;98607.83;273040;1265;22195;-83
2023/06/17 13:03:29;;;;;;;6.00;5.10;;;;;;;24.30;54.50;98604.95;273668;1273;23139;-83
2023/06/17 13:09:31;;;;;;;8.80;5.60;;;;;;;24.22;55.29;98611.39;273244;1259;22524;-85
2023/06/17 13:16:03;;;;;;;5.70;4.50;;;;;;;24.13;55.57;98608.96;272035;1259;22547;-83
2023/06/17 13:22:04;;;;;;;6.30;4.80;;;;;;;24.02;55.15;98600.27;272575;1271;22578;-82
2023/06/17 13:29:02;;;;;;;6.40;4.80;;;;;;;23.94;55.32;98601.73;270846;1270;22195;-83
2023/06/17 13:35:05;;;;;;;5.10;4.60;;;;;;;23.98;55.35;98599.66;273350;1272;23281;-83
2023/06/17 13:41:21;;;;;;;7.20;5.50;;;;;;;23.77;56.10;98604.59;273449;1262;22189;-84
2023/06/17 13:47:48;;;;;;;6.30;4.70;;;;;;;23.62;56.84;98605.45;273107;1270;22545;-83
2023/06/17 13:53:50;;;;;;;6.30;5.10;;;;;;;23.56;56.55;98606.66;271814;1270;22582;-82
2023/06/17 13:59:53;;;;;;;6.10;4.50;;;;;;;23.45;56.96;98605.27;270895;1270;22471;-84
2023/06/17 14:06:00;;;;;;;5.10;4.60;;;;;;;23.43;57.14;98606.45;272079;1262;23743;-83
2023/06/17 14:12:10;;;;;;;5.00;4.10;;;;;;;23.33;57.37;98601.98;271881;1270;22569;-83
2023/06/17 14:18:22;;;;;;;5.20;4.20;;;;;;;23.29;57.61;98601.38;271081;1271;22806;-84
2023/06/17 14:24:27;;;;;;;5.70;4.50;;;;;;;23.21;58.19;98606.67;272792;1270;22960;-82
2023/06/17 14:30:39;;;;;;;7.60;4.50;;;;;;;23.15;57.94;98607.89;273111;1270;22502;-83
2023/06/17 14:36:43;;;;;;;7.90;6.80;;;;;;;23.16;57.84;98613.59;273334;1272;22652;-82
2023/06/17 14:42:48;;;;;;;7.00;5.20;;;;;;;23.05;57.04;98613.46;270880;1270;22582;-83
2023/06/17 14:48:50;;;;;;;6.90;5.00;;;;;;;22.95;57.33;98615.11;271594;1270;22546;-82
2023/06/17 14:54:52;;;;;;;5.80;5.10;;;;;;;22.90;58.20;98614.83;271778;1270;22482;-84
2023/06/17 15:01:10;;;;;;;6.50;5.80;;;;;;;22.81;57.53;98609.04;272027;1270;22520;-85
2023/06/17 15:07:45;;;;;;;10.00;8.80;;;;;;;22.67;56.51;98604.08;271725;1270;22547;-85
2023/06/17 15:13:57;;;;;;;6.00;5.20;;;;;;;22.55;56.06;98601.08;271255;1271;22548;-84
2023/06/17 15:20:10;;;;;;;7.20;4.50;;;;;;;22.52;56.26;98599.38;272344;1272;22213;-84
2023/06/17 15:26:16;;;;;;;5.70;4.80;;;;;;;22.57;56.26;98600.14;270327;1270;22544;-84
2023/06/17 15:32:58;;;;;;;5.00;4.50;;;;;;;22.60;56.47;98597.59;270746;1260;22180;-84
2023/06/17 15:39:43;;;;;;;7.40;5.00;;;;;;;22.57;56.43;98593.10;270120;1271;22589;-84
2023/06/17 15:52:39;;;;;;;5.20;4.60;;;;;;;22.35;57.08;98596.13;270738;1271;22603;-85
2023/06/17 15:58:40;;;;;;;7.30;5.30;;;;;;;22.19;57.86;98593.04;272017;1272;22563;-83
2023/06/17 16:04:44;;;;;;;6.20;4.90;;;;;;;22.18;57.82;98598.02;273287;1272;22519;-84
2023/06/17 16:10:45;;;;;;;5.60;5.00;;;;;;;22.12;58.04;98591.50;272523;1271;22311;-84
2023/06/17 16:24:36;;;;;;;6.30;4.70;;;;;;;22.08;58.53;98598.02;273227;1270;22564;-83
2023/06/17 16:30:50;;;;;;;4.50;3.80;;;;;;;22.02;57.81;98600.92;272774;1270;22458;-83
2023/06/17 16:37:45;;;;;;;5.20;4.20;;;;;;;21.95;57.62;98609.83;271018;1261;22288;-84
2023/06/17 16:44:37;;;;;;;5.50;4.70;;;;;;;21.91;58.33;98611.17;266469;1270;8413828;-84
2023/06/17 16:51:39;;;;;;;6.70;4.50;;;;;;;21.89;58.20;98616.22;273717;1276;22180;-84
2023/06/17 16:58:02;;;;;;;6.00;4.80;;;;;;;21.81;58.64;98621.86;273050;1272;22452;-83
2023/06/17 17:04:47;;;;;;;5.80;4.50;;;;;;;21.73;59.30;98625.73;272054;1270;22190;-81
2023/06/17 17:10:51;;;;;;;6.70;5.10;;;;;;;21.65;59.44;98624.83;273715;1270;22550;-82
2023/06/17 17:16:55;;;;;;;12.20;5.40;;;;;;;21.64;59.28;98629.49;273290;1272;22210;-83
2023/06/17 17:23:05;;;;;;;6.70;5.00;;;;;;;21.61;59.81;98636.78;270911;1270;22546;-83
2023/06/17 17:37:01;;;;;;;6.70;6.00;;;;;;;21.46;60.79;98647.61;270021;1270;22427;-83
2023/06/17 17:51:31;;;;;;;9.00;6.60;;;;;;;21.20;61.66;98647.42;274220;1277;22201;-83
2023/06/17 17:58:00;;;;;;;6.30;5.20;;;;;;;21.05;62.80;98652.02;273884;1270;23901;-83
2023/06/17 18:04:20;;;;;;;6.50;4.40;;;;;;;20.90;63.25;98658.66;273734;1272;22294;-82
2023/06/17 18:10:46;;;;;;;4.30;3.80;;;;;;;20.86;63.18;98662.23;273985;1273;22177;-83
2023/06/17 18:16:48;;;;;;;9.10;4.00;;;;;;;20.79;63.44;98667.89;273095;1272;22263;-82
2023/06/17 18:22:51;;;;;;;7.90;5.10;;;;;;;20.70;63.41;98680.42;272831;1258;22287;-82
2023/06/17 18:28:57;;;;;;;6.70;4.90;;;;;;;20.64;63.39;98689.70;270693;1272;23720;-82
2023/06/17 18:35:16;;;;;;;6.30;3.40;;;;;;;20.53;63.41;98690.48;273352;1270;22559;-83
2023/06/17 18:48:31;;;;;;;7.00;4.20;;;;;;;20.08;65.15;98701.30;272224;1272;22550;-85
2023/06/17 18:54:35;;;;;;;6.30;4.70;;;;;;;19.80;65.83;98706.61;271020;1271;22550;-83
2023/06/17 19:00:37;;;;;;;5.90;4.30;;;;;;;19.67;65.51;98710.76;270779;1270;23179;-83
2023/06/17 19:06:40;;;;;;;5.70;4.40;;;;;;;19.50;66.05;98714.83;271063;1270;22597;-83
2023/06/17 19:12:42;;;;;;;9.80;5.20;;;;;;;19.31;66.41;98719.39;272169;1266;23363;-84
2023/06/17 19:18:44;;;;;;;7.90;5.80;;;;;;;19.19;66.85;98727.80;271588;1270;22326;-84
2023/06/17 19:25:27;;;;;;;9.80;5.90;;;;;;;19.04;67.33;98735.98;272530;1270;23435;-84
2023/06/17 19:32:17;;;;;;;9.70;6.00;;;;;;;18.88;67.44;98743.64;272026;1270;22567;-83
2023/06/17 19:38:37;;;;;;;20.30;8.60;;;;;;;18.71;67.99;98748.81;272857;1272;22376;-83
2023/06/17 19:45:37;;;;;;;12.70;7.60;;;;;;;18.55;68.26;98756.73;272282;1264;22631;-83
2023/06/17 19:51:39;;;;;;;13.90;7.50;;;;;;;18.25;68.85;98762.11;271907;1270;22549;-82
2023/06/17 19:57:45;;;;;;;13.00;8.50;;;;;;;17.95;69.50;98766.91;271911;1270;22354;-83
2023/06/17 20:04:37;;;;;;;9.40;7.40;;;;;;;17.75;70.09;98777.00;272239;1270;22729;-83
2023/06/17 20:11:07;;;;;;;13.40;7.40;;;;;;;17.54;71.04;98785.65;271504;1270;25245;-82
2023/06/17 20:17:10;;;;;;;13.50;7.80;;;;;;;17.46;72.67;98783.37;270775;1270;22627;-82
2023/06/17 20:23:18;;;;;;;10.50;7.40;;;;;;;17.47;73.71;98778.94;270511;1264;23884;-84
2023/06/17 20:29:23;;;;;;;10.80;7.90;;;;;;;17.37;73.71;98782.42;272557;1270;22904;-83
2023/06/17 20:35:25;;;;;;;12.20;8.40;;;;;;;17.23;74.23;98781.81;271230;1267;22559;-83
2023/06/17 20:42:01;;;;;;;14.70;9.20;;;;;;;17.20;75.57;98778.24;272116;1271;22958;-82
2023/06/17 20:48:04;;;;;;;11.00;7.90;;;;;;;17.19;76.00;98781.97;271145;1270;22305;-82
2023/06/17 20:54:06;;;;;;;11.50;8.10;;;;;;;17.14;76.70;98780.46;270921;1262;22644;-82
2023/06/17 21:00:08;;;;;;;10.80;8.20;;;;;;;17.08;77.23;98776.08;271162;1270;22205;-83
2023/06/17 21:07:01;;;;;;;11.90;8.80;;;;;;;17.00;77.66;98772.45;270459;1270;22213;-82
2023/06/17 21:13:03;;;;;;;12.00;8.30;;;;;;;16.89;78.53;98772.80;271848;1270;22087;-83
2023/06/17 21:19:07;;;;;;;9.10;7.70;;;;;;;16.80;79.31;98776.04;273433;1262;22478;-82
2023/06/17 21:25:29;;;;;;;11.70;8.90;;;;;;;16.70;80.14;98781.66;272275;1270;23451;-83
2023/06/17 21:31:50;;;;;;;12.80;8.20;;;;;;;16.49;80.52;98786.41;273613;1270;22567;-83
2023/06/17 21:38:16;;;;;;;11.20;9.00;;;;;;;16.30;81.11;98789.45;273029;1269;22185;-83
2023/06/17 21:44:18;;;;;;;10.90;9.20;;;;;;;16.22;81.80;98797.23;272094;1270;22577;-83
2023/06/17 21:57:58;;;;;;;13.60;9.00;;;;;;;15.88;82.34;98809.05;271585;1270;23756;-83
2023/06/17 22:04:25;;;;;;;17.40;10.40;;;;;;;15.69;82.62;98808.44;271352;1270;22555;-82
2023/06/17 22:18:16;;;;;;;13.50;10.60;;;;;;;15.25;83.22;98812.52;272451;1259;23529;-82
2023/06/17 22:24:32;;;;;;;14.20;8.20;;;;;;;15.12;84.04;98818.34;272121;1270;22288;-83
2023/06/17 22:30:35;;;;;;;10.30;8.00;;;;;;;15.00;84.88;98816.17;271827;1270;22539;-83
2023/06/17 22:36:36;;;;;;;13.60;9.80;;;;;;;14.86;84.69;98815.73;270912;1270;22527;-82
2023/06/17 22:42:38;;;;;;;11.70;8.40;;;;;;;14.76;85.96;98812.77;270326;1270;24726;-83
2023/06/17 22:48:42;;;;;;;13.30;10.00;;;;;;;14.76;86.48;98810.25;270201;1259;22550;-82
2023/06/17 22:55:00;;;;;;;13.30;9.60;;;;;;;14.73;87.03;98814.52;270514;1270;22909;-83
2023/06/17 23:01:40;;;;;;;14.20;9.20;;;;;;;14.64;87.21;98825.14;272155;1270;22225;-83
2023/06/17 23:07:43;;;;;;;13.40;9.90;;;;;;;14.54;87.69;98824.83;273259;1270;22646;-83
2023/06/17 23:28:33;;;;;;;13.60;10.00;;;;;;;14.19;89.24;98810.56;271905;1270;22558;-82
2023/06/17 23:34:35;;;;;;;10.70;8.30;;;;;;;14.25;89.91;98806.05;271997;1270;22586;-83
2023/06/17 23:40:37;;;;;;;15.80;9.50;;;;;;;14.25;90.09;98805.75;272069;1270;22559;-82
2023/06/17 23:46:41;;;;;;;13.60;9.60;;;;;;;14.17;89.99;98804.19;271963;1270;22329;-83
2023/06/17 23:53:11;;;;;;;12.80;9.30;;;;;;;14.05;90.19;98801.61;270234;1270;22551;-83
2023/06/17 23:59:13;;;;;;;13.00;10.40;;;;;;;13.99;90.62;98798.02;272760;1270;22126;-84
